| time (UTC) | temp F | wind direction | speed MPH | gust MPH | rain 1hr in | rain 24hr in | rain mn in | humidity % | barometer mb |
| 20260905122233 | 70 | 1 | 7.0 | 14.0 | 0.00 | 0.32 | 0.10 | 61 | 1022.8 |
| 20260905121236 | 70 | 280 | 6.0 | 13.0 | 0.00 | 0.32 | 0.10 | 62 | 1022.7 |
| 20260905120234 | 68 | 58 | 5.0 | 10.0 | 0.00 | 0.32 | 0.10 | 65 | 1022.7 |
| 20260905115236 | 68 | 317 | 10.0 | 13.0 | 0.00 | 0.32 | 0.10 | 63 | 1022.8 |
| 20260905114233 | 70 | 183 | 4.0 | 9.0 | 0.00 | 0.32 | 0.10 | 62 | 1023.0 |
| 20260905113235 | 70 | 333 | 8.0 | 14.0 | 0.00 | 0.32 | 0.10 | 61 | 1023.0 |
| 20260905112234 | 69 | 26 | 7.0 | 15.0 | 0.00 | 0.32 | 0.10 | 62 | 1022.9 |
| 20260905111236 | 69 | 220 | 7.0 | 13.0 | 0.00 | 0.32 | 0.10 | 62 | 1023.0 |
| 20260905110314 | 69 | 321 | 6.0 | 13.0 | 0.00 | 0.32 | 0.10 | 62 | 1022.9 |
| 20260905105234 | 69 | 345 | 10.0 | 17.0 | 0.00 | 0.32 | 0.10 | 66 | 1022.7 |
| 20260905104234 | 68 | 322 | 6.0 | 11.0 | 0.00 | 0.32 | 0.10 | 66 | 1022.7 |
| 20260905103235 | 68 | 214 | 8.0 | 15.0 | 0.00 | 0.32 | 0.10 | 68 | 1023.1 |
| 20260905102234 | 67 | 209 | 5.0 | 9.0 | 0.00 | 0.32 | 0.10 | 69 | 1022.8 |
| 20260905101255 | 67 | 227 | 7.0 | 16.0 | 0.00 | 0.32 | 0.10 | 68 | 1023.0 |
| 20260905100253 | 68 | 75 | 7.0 | 15.0 | 0.00 | 0.32 | 0.10 | 70 | 1023.0 |
| 20260905095236 | 67 | 359 | 7.0 | 11.0 | 0.00 | 0.32 | 0.10 | 70 | 1022.6 |
| 20260905094234 | 67 | 95 | 7.0 | 13.0 | 0.00 | 0.32 | 0.10 | 69 | 1022.8 |
| 20260905093256 | 66 | 331 | 7.0 | 13.0 | 0.00 | 0.32 | 0.10 | 73 | 1022.6 |
| 20260905092234 | 67 | 52 | 7.0 | 15.0 | 0.00 | 0.32 | 0.10 | 71 | 1022.8 |
| 20260905091236 | 66 | 28 | 7.0 | 18.0 | 0.00 | 0.32 | 0.10 | 72 | 1022.7 |
| 20260905090234 | 66 | 85 | 7.0 | 14.0 | 0.00 | 0.32 | 0.10 | 72 | 1022.7 |
| 20260905085235 | 66 | 145 | 4.0 | 7.0 | 0.00 | 0.32 | 0.10 | 75 | 1022.8 |
| 20260905084233 | 65 | 80 | 6.0 | 11.0 | 0.00 | 0.32 | 0.10 | 76 | 1022.6 |
| 20260905083235 | 65 | 88 | 4.0 | 7.0 | 0.00 | 0.32 | 0.10 | 77 | 1022.6 |
| 20260905082235 | 64 | 198 | 6.0 | 13.0 | 0.00 | 0.32 | 0.10 | 77 | 1022.4 |
| 20260905081236 | 65 | 338 | 5.0 | 17.0 | 0.00 | 0.32 | 0.10 | 78 | 1022.3 |
| 20260905080234 | 64 | 310 | 6.0 | 11.0 | 0.00 | 0.32 | 0.10 | 78 | 1022.4 |
| 20260905075316 | 64 | 131 | 5.0 | 10.0 | 0.00 | 0.32 | 0.10 | 79 | 1022.5 |
| 20260905074233 | 64 | 318 | 6.0 | 11.0 | 0.00 | 0.32 | 0.10 | 80 | 1021.9 |
| 20260905073236 | 63 | 18 | 5.0 | 8.0 | 0.00 | 0.32 | 0.10 | 82 | 1022.1 |
| 20260905072234 | 63 | 326 | 9.0 | 15.0 | 0.00 | 0.32 | 0.10 | 82 | 1022.0 |
| 20260905071235 | 63 | 305 | 7.0 | 14.0 | 0.00 | 0.32 | 0.10 | 83 | 1021.8 |
| 20260905070234 | 63 | 140 | 8.0 | 15.0 | 0.00 | 0.32 | 0.10 | 84 | 1021.6 |
| 20260905065256 | 62 | 25 | 7.0 | 16.0 | 0.00 | 0.32 | 0.10 | 86 | 1021.6 |
| 20260905064233 | 62 | 351 | 6.0 | 13.0 | 0.00 | 0.32 | 0.10 | 87 | 1021.6 |
| 20260905063236 | 62 | 335 | 5.0 | 11.0 | 0.00 | 0.32 | 0.10 | 89 | 1021.5 |
| 20260905062233 | 62 | 352 | 6.0 | 11.0 | 0.00 | 0.32 | 0.10 | 90 | 1021.4 |
| 20260905061236 | 61 | 133 | 2.0 | 8.0 | 0.00 | 0.32 | 0.10 | 91 | 1021.0 |
| 20260905060234 | 61 | 108 | 4.0 | 9.0 | 0.00 | 0.32 | 0.10 | 91 | 1021.3 |
| 20260905055236 | 60 | 149 | 4.0 | 8.0 | 0.00 | 0.32 | 0.10 | 91 | 1021.3 |
| 20260905054234 | 60 | 176 | 5.0 | 8.0 | 0.00 | 0.32 | 0.10 | 92 | 1021.2 |
| 20260905053320 | 60 | 54 | 3.0 | 7.0 | 0.00 | 0.32 | 0.10 | 92 | 1021.0 |
| 20260905052235 | 60 | 138 | 1.0 | 5.0 | 0.00 | 0.32 | 0.10 | 92 | 1020.8 |
| 20260905051236 | 60 | 74 | 2.0 | 5.0 | 0.00 | 0.32 | 0.10 | 92 | 1020.6 |
| 20260905050254 | 60 | 156 | 3.0 | 8.0 | 0.00 | 0.32 | 0.10 | 92 | 1020.6 |
| 20260905045235 | 60 | 346 | 2.0 | 5.0 | 0.00 | 0.32 | 0.10 | 92 | 1020.5 |
| 20260905044234 | 60 | 110 | 3.0 | 6.0 | 0.00 | 0.32 | 0.10 | 92 | 1020.5 |
| 20260905043236 | 60 | 82 | 4.0 | 7.0 | 0.00 | 0.32 | 0.10 | 92 | 1020.3 |
| 20260905042233 | 60 | 35 | 3.0 | 5.0 | 0.00 | 0.32 | 0.10 | 92 | 1020.2 |
| 20260905041236 | 60 | 34 | 3.0 | 7.0 | 0.00 | 0.32 | 0.10 | 92 | 1020.2 |
| 20260905040254 | 60 | 81 | 3.0 | 6.0 | 0.00 | 0.32 | 0.10 | 92 | 1020.0 |
| 20260905035234 | 60 | 65 | 3.0 | 6.0 | 0.00 | 0.32 | 0.10 | 93 | 1019.9 |
| 20260905034234 | 60 | 118 | 3.0 | 6.0 | 0.00 | 0.32 | 0.10 | 93 | 1020.0 |
| 20260905033236 | 60 | 123 | 2.0 | 6.0 | 0.00 | 0.32 | 0.10 | 93 | 1019.9 |
| 20260905032233 | 60 | 77 | 4.0 | 9.0 | 0.00 | 0.32 | 0.10 | 92 | 1019.6 |
| 20260905031236 | 61 | 133 | 2.0 | 5.0 | 0.00 | 0.32 | 0.10 | 92 | 1019.5 |
| 20260905030252 | 61 | 20 | 5.0 | 9.0 | 0.00 | 0.32 | 0.10 | 92 | 1019.3 |
| 20260905025236 | 61 | 48 | 3.0 | 6.0 | 0.00 | 0.32 | 0.10 | 92 | 1019.2 |
| 20260905024234 | 61 | 44 | 4.0 | 10.0 | 0.00 | 0.32 | 0.10 | 92 | 1019.1 |
| 20260905023236 | 61 | 175 | 2.0 | 5.0 | 0.00 | 0.32 | 0.10 | 93 | 1018.7 |
| 20260905022235 | 61 | 146 | 3.0 | 6.0 | 0.00 | 0.32 | 0.10 | 93 | 1018.8 |
| 20260905021236 | 61 | 121 | 3.0 | 7.0 | 0.00 | 0.32 | 0.10 | 93 | 1018.7 |
| 20260905020234 | 61 | 128 | 3.0 | 6.0 | 0.00 | 0.32 | 0.10 | 93 | 1018.2 |
| 20260905015236 | 61 | 88 | 1.0 | 3.0 | 0.00 | 0.32 | 0.10 | 94 | 1017.9 |
| 20260905014233 | 61 | 127 | 3.0 | 7.0 | 0.00 | 0.32 | 0.10 | 94 | 1018.7 |
| 20260905013234 | 61 | 347 | 3.0 | 6.0 | 0.00 | 0.32 | 0.10 | 95 | 1018.8 |
| 20260905012234 | 60 | 127 | 2.0 | 3.0 | 0.00 | 0.32 | 0.10 | 96 | 1018.4 |
| 20260905011256 | 61 | 118 | 2.0 | 3.0 | 0.00 | 0.32 | 0.10 | 96 | 1018.0 |
| 20260905010234 | 60 | 178 | 3.0 | 5.0 | 0.00 | 0.32 | 0.10 | 96 | 1018.1 |
| 20260905005236 | 60 | 93 | 3.0 | 7.0 | 0.00 | 0.32 | 0.10 | 97 | 1018.0 |
| 20260905004253 | 60 | 255 | 2.0 | 3.0 | 0.00 | 0.32 | 0.10 | 97 | 1018.4 |
| 20260905003236 | 60 | 157 | 3.0 | 5.0 | 0.00 | 0.32 | 0.10 | 98 | 1018.3 |
| 20260905002234 | 60 | 204 | 4.0 | 6.0 | 0.00 | 0.32 | 0.10 | 98 | 1018.4 |
| 20260905001236 | 60 | 156 | 5.0 | 7.0 | 0.01 | 0.32 | 0.10 | 98 | 1018.1 |
| 20260905000234 | 60 | 170 | 4.0 | 9.0 | 0.01 | 0.32 | 0.10 | 98 | 1018.0 |
| 20260904235236 | 60 | 306 | 3.0 | 6.0 | 0.02 | 0.32 | 0.10 | 98 | 1018.0 |
| 20260904234234 | 60 | 28 | 5.0 | 9.0 | 0.02 | 0.32 | 0.10 | 98 | 1017.9 |
| 20260904233316 | 61 | 42 | 3.0 | 6.0 | 0.03 | 0.32 | 0.10 | 98 | 1018.0 |
| 20260904232235 | 61 | 174 | 3.0 | 5.0 | 0.04 | 0.32 | 0.10 | 98 | 1017.7 |
| 20260904231236 | 61 | 177 | 4.0 | 6.0 | 0.06 | 0.31 | 0.09 | 98 | 1017.4 |
| 20260904230234 | 60 | 57 | 4.0 | 10.0 | 0.09 | 0.31 | 0.09 | 98 | 1017.2 |
| 20260904225255 | 61 | 145 | 3.0 | 6.0 | 0.08 | 0.30 | 0.08 | 98 | 1017.0 |
| 20260904224234 | 60 | 4 | 3.0 | 6.0 | 0.10 | 0.30 | 0.08 | 98 | 1016.8 |
| 20260904223235 | 61 | 353 | 4.0 | 8.0 | 0.10 | 0.29 | 0.07 | 98 | 1017.0 |
| 20260904222234 | 61 | 23 | 3.0 | 7.0 | 0.11 | 0.28 | 0.06 | 98 | 1017.3 |
| 20260904221236 | 61 | 29 | 3.0 | 5.0 | 0.08 | 0.25 | 0.03 | 97 | 1017.1 |
| 20260904220235 | 61 | 90 | 3.0 | 8.0 | 0.06 | 0.22 | 0.00 | 97 | 1017.0 |
| 20260904215235 | 61 | 79 | 4.0 | 7.0 | 0.11 | 0.22 | 0.22 | 97 | 1016.8 |
| 20260904214254 | 61 | 329 | 4.0 | 8.0 | 0.10 | 0.20 | 0.20 | 96 | 1017.1 |
| 20260904213235 | 61 | 77 | 3.0 | 5.0 | 0.10 | 0.19 | 0.19 | 96 | 1017.2 |
| 20260904212234 | 61 | 1 | 5.0 | 10.0 | 0.13 | 0.17 | 0.17 | 96 | 1017.1 |
| 20260904211234 | 61 | 130 | 2.0 | 3.0 | 0.13 | 0.17 | 0.17 | 96 | 1016.7 |
| 20260904210235 | 61 | 156 | 2.0 | 5.0 | 0.12 | 0.16 | 0.16 | 95 | 1017.0 |
| 20260904205255 | 62 | 2 | 4.0 | 7.0 | 0.07 | 0.11 | 0.11 | 94 | 1017.0 |
| 20260904204234 | 62 | 17 | 5.0 | 9.0 | 0.06 | 0.10 | 0.10 | 93 | 1016.9 |
| 20260904203226 | 63 | 321 | 4.0 | 9.0 | 0.09 | 0.09 | 0.09 | 91 | 1017.4 |
| 20260904202234 | 63 | 58 | 4.0 | 8.0 | 0.04 | 0.04 | 0.04 | 89 | 1017.1 |
| 20260904201236 | 63 | 116 | 3.0 | 6.0 | 0.04 | 0.04 | 0.04 | 90 | 1016.6 |
| 20260904200233 | 63 | 7 | 6.0 | 13.0 | 0.04 | 0.04 | 0.04 | 91 | 1016.8 |
| 20260904195256 | 64 | 257 | 7.0 | 11.0 | 0.04 | 0.04 | 0.04 | 90 | 1017.2 |
| 20260904194235 | 66 | 301 | 9.0 | 15.0 | 0.04 | 0.04 | 0.04 | 88 | 1017.0 |
| 20260904193236 | 72 | 315 | 7.0 | 11.0 | 0.00 | 0.00 | 0.00 | 70 | 1016.8 |
| 20260904192234 | 72 | 19 | 5.0 | 11.0 | 0.00 | 0.00 | 0.00 | 69 | 1015.4 |
| 20260904191236 | 73 | 290 | 8.0 | 17.0 | 0.00 | 0.00 | 0.00 | 68 | 1015.4 |
| 20260904190254 | 74 | 342 | 6.0 | 10.0 | 0.00 | 0.00 | 0.00 | 69 | 1015.3 |
| 20260904185234 | 75 | 2 | 7.0 | 13.0 | 0.00 | 0.00 | 0.00 | 71 | 1015.2 |
| 20260904184234 | 76 | 329 | 10.0 | 21.0 | 0.00 | 0.00 | 0.00 | 76 | 1015.1 |
| 20260904183236 | 78 | 290 | 10.0 | 22.0 | 0.00 | 0.00 | 0.00 | 71 | 1013.7 |
| 20260904182255 | 77 | 168 | 4.0 | 7.0 | 0.00 | 0.00 | 0.00 | 69 | 1013.1 |
| 20260904181255 | 77 | 174 | 3.0 | 6.0 | 0.00 | 0.00 | 0.00 | 69 | 1012.8 |
| 20260904180252 | 78 | 190 | 4.0 | 9.0 | 0.00 | 0.00 | 0.00 | 69 | 1013.0 |
| 20260904175235 | 77 | 119 | 3.0 | 5.0 | 0.00 | 0.00 | 0.00 | 69 | 1012.7 |
| 20260904174233 | 77 | 170 | 4.0 | 8.0 | 0.00 | 0.00 | 0.00 | 69 | 1013.0 |
| 20260904173235 | 77 | 193 | 3.0 | 5.0 | 0.00 | 0.00 | 0.00 | 70 | 1012.9 |
| 20260904172258 | 77 | 174 | 3.0 | 7.0 | 0.00 | 0.00 | 0.00 | 70 | 1013.4 |
| 20260904171236 | 77 | 134 | 3.0 | 7.0 | 0.00 | 0.00 | 0.00 | 70 | 1013.5 |
| 20260904170234 | 77 | 194 | 2.0 | 5.0 | 0.00 | 0.00 | 0.00 | 70 | 1013.6 |
| 20260904165235 | 78 | 190 | 3.0 | 7.0 | 0.00 | 0.00 | 0.00 | 70 | 1013.7 |
| 20260904164234 | 77 | 190 | 4.0 | 9.0 | 0.00 | 0.00 | 0.00 | 70 | 1013.8 |
| 20260904163235 | 78 | 174 | 5.0 | 9.0 | 0.00 | 0.00 | 0.00 | 70 | 1013.8 |
| 20260904162235 | 77 | 179 | 4.0 | 7.0 | 0.00 | 0.00 | 0.00 | 70 | 1013.9 |
| 20260904161235 | 77 | 130 | 3.0 | 6.0 | 0.00 | 0.00 | 0.00 | 71 | 1013.9 |
| 20260904160234 | 77 | 190 | 4.0 | 7.0 | 0.00 | 0.00 | 0.00 | 71 | 1014.1 |
| 20260904155236 | 77 | 127 | 3.0 | 6.0 | 0.00 | 0.00 | 0.00 | 71 | 1014.1 |
| 20260904154235 | 77 | 176 | 5.0 | 11.0 | 0.00 | 0.00 | 0.00 | 71 | 1014.1 |
| 20260904153255 | 77 | 175 | 3.0 | 5.0 | 0.00 | 0.00 | 0.00 | 71 | 1014.2 |
| 20260904152235 | 77 | 159 | 4.0 | 6.0 | 0.00 | 0.00 | 0.00 | 72 | 1014.2 |
| 20260904151255 | 78 | 139 | 5.0 | 10.0 | 0.00 | 0.00 | 0.00 | 70 | 1014.5 |
| 20260904150233 | 77 | 144 | 4.0 | 7.0 | 0.00 | 0.00 | 0.00 | 71 | 1014.7 |
| 20260904145227 | 77 | 176 | 5.0 | 8.0 | 0.00 | 0.00 | 0.00 | 71 | 1014.9 |
| 20260904144253 | 77 | 149 | 3.0 | 6.0 | 0.00 | 0.00 | 0.00 | 71 | 1014.7 |
| 20260904143235 | 78 | 164 | 3.0 | 7.0 | 0.00 | 0.00 | 0.00 | 70 | 1014.9 |
| 20260904142236 | 78 | 151 | 4.0 | 9.0 | 0.00 | 0.00 | 0.00 | 71 | 1015.0 |
| 20260904141235 | 78 | 172 | 3.0 | 5.0 | 0.00 | 0.00 | 0.00 | 71 | 1015.3 |
| 20260904140234 | 77 | 181 | 3.0 | 8.0 | 0.00 | 0.00 | 0.00 | 71 | 1015.4 |
| 20260904135226 | 78 | 164 | 3.0 | 6.0 | 0.00 | 0.00 | 0.00 | 69 | 1015.7 |
| 20260904134234 | 76 | 271 | 4.0 | 6.0 | 0.00 | 0.00 | 0.00 | 71 | 1015.7 |
| 20260904133235 | 75 | 141 | 2.0 | 3.0 | 0.00 | 0.00 | 0.00 | 72 | 1015.7 |
| 20260904132253 | 75 | 191 | 4.0 | 7.0 | 0.00 | 0.00 | 0.00 | 71 | 1016.0 |
| 20260904131226 | 75 | 92 | 3.0 | 6.0 | 0.00 | 0.00 | 0.00 | 71 | 1016.3 |
| 20260904130233 | 75 | 131 | 2.0 | 5.0 | 0.00 | 0.00 | 0.00 | 72 | 1016.5 |
| 20260904125227 | 75 | 127 | 3.0 | 6.0 | 0.00 | 0.00 | 0.00 | 72 | 1016.6 |
| 20260904124254 | 74 | 98 | 3.0 | 8.0 | 0.00 | 0.00 | 0.00 | 74 | 1016.8 |
| 20260904123226 | 74 | 137 | 2.0 | 6.0 | 0.00 | 0.00 | 0.00 | 76 | 1016.9 |